Time;durP1;ratioP1;P1;durP2;ratioP2;P2;SDS_P1;SDS_P2;PMS_P1;PMS_P2;Temp;Humidity;BMP_temperature;BMP_pressure;BME280_temperature;BME280_humidity;BME280_pressure;Samples;Min_cycle;Max_cycle;Signal;HPM_P1;HPM_P2
2022/03/25 00:01:09;;;;;;;;;50.50;38.50;;;;;13.28;38.77;102473.16;5043846;28;45612;-70
2022/03/25 00:03:34;;;;;;;;;57.00;40.50;;;;;13.29;38.98;102466.09;5047880;28;45377;-70
2022/03/25 00:06:00;;;;;;;;;59.00;42.00;;;;;13.28;39.42;102477.59;5038878;28;45449;-71
2022/03/25 00:08:26;;;;;;;;;56.00;42.50;;;;;13.22;38.85;102468.06;5041571;28;45396;-70
2022/03/25 00:10:51;;;;;;;;;56.00;42.00;;;;;13.21;39.41;102468.97;5043750;28;46250;-70
2022/03/25 00:13:17;;;;;;;;;51.25;38.00;;;;;13.21;38.97;102470.72;5047916;28;45534;-70
2022/03/25 00:15:42;;;;;;;;;55.50;41.50;;;;;13.16;38.84;102473.47;5055022;28;45941;-70
2022/03/25 00:18:08;;;;;;;;;56.75;40.00;;;;;13.15;38.93;102471.72;5038429;28;45491;-70
2022/03/25 00:20:33;;;;;;;;;59.25;43.00;;;;;13.13;39.07;102477.94;5050522;28;45372;-70
2022/03/25 00:22:59;;;;;;;;;58.25;41.75;;;;;13.10;39.04;102472.75;5044194;28;45435;-70
2022/03/25 00:25:24;;;;;;;;;55.25;41.25;;;;;13.09;39.02;102469.22;5043610;28;45518;-70
2022/03/25 00:27:49;;;;;;;;;53.00;40.25;;;;;13.05;39.38;102471.09;5043946;28;45498;-70
2022/03/25 00:30:14;;;;;;;;;53.75;39.00;;;;;13.04;39.23;102476.41;5047943;28;45515;-71
2022/03/25 00:32:40;;;;;;;;;58.50;42.25;;;;;13.02;39.18;102463.25;5039498;28;45657;-70
2022/03/25 00:35:07;;;;;;;;;58.00;42.50;;;;;13.00;39.50;102469.50;5042945;28;45313;-71
2022/03/25 00:37:32;;;;;;;;;56.75;42.00;;;;;12.99;39.06;102473.00;5043698;28;45320;-70
2022/03/25 00:39:58;;;;;;;;;50.25;38.50;;;;;12.96;39.31;102467.81;5043341;28;47893;-71
2022/03/25 00:42:24;;;;;;;;;53.00;38.25;;;;;12.93;39.11;102471.41;5040626;28;45413;-70
2022/03/25 00:44:50;;;;;;;;;62.75;43.00;;;;;12.93;39.11;102467.88;5039209;28;48056;-70
2022/03/25 00:47:15;;;;;;;;;51.75;42.25;;;;;12.89;39.21;102469.72;5042497;28;45512;-70
2022/03/25 00:49:40;;;;;;;;;52.25;40.75;;;;;12.89;39.51;102463.59;5049976;28;45443;-71
2022/03/25 00:52:06;;;;;;;;;51.00;38.75;;;;;12.87;39.33;102465.41;5054304;28;45435;-70
2022/03/25 00:54:31;;;;;;;;;56.50;43.00;;;;;12.88;39.50;102473.28;5054253;28;45577;-70
2022/03/25 00:56:57;;;;;;;;;52.75;40.50;;;;;12.82;39.29;102456.75;5038633;28;45510;-71
2022/03/25 00:59:22;;;;;;;;;52.50;40.00;;;;;12.84;39.24;102468.13;5049382;28;47178;-70
2022/03/25 01:01:47;;;;;;;;;26.50;21.00;;;;;12.84;39.15;102463.69;5045203;28;45715;-71
2022/03/25 01:04:12;;;;;;;;;51.50;41.75;;;;;12.83;39.27;102469.03;5042647;28;45739;-71
2022/03/25 01:06:38;;;;;;;;;54.75;40.00;;;;;12.80;39.07;102460.28;5045368;28;45607;-70
2022/03/25 01:09:05;;;;;;;;;58.50;39.00;;;;;12.79;39.05;102468.25;5038310;28;46150;-70
2022/03/25 01:11:30;;;;;;;;;59.00;42.75;;;;;12.74;39.32;102459.59;5039936;28;46188;-70
2022/03/25 01:13:57;;;;;;;;;49.50;37.25;;;;;12.76;39.31;102463.91;5042855;28;45370;-70
2022/03/25 01:16:22;;;;;;;;;57.00;42.50;;;;;12.73;39.50;102455.19;5048082;28;45470;-71
2022/03/25 01:18:47;;;;;;;;;38.00;29.00;;;;;12.69;39.44;102453.56;5053251;28;46330;-71
2022/03/25 01:21:13;;;;;;;;;55.00;40.33;;;;;12.69;39.50;102457.06;5054258;28;45405;-70
2022/03/25 01:23:38;;;;;;;;;57.75;42.25;;;;;12.68;39.09;102457.06;5054951;28;45583;-71
2022/03/25 01:26:04;;;;;;;;;54.00;40.50;;;;;12.67;39.47;102453.56;5053397;28;45578;-70
2022/03/25 01:28:34;;;;;;;;;56.00;44.00;;;;;12.67;39.34;102450.94;5050283;28;45578;-70
2022/03/25 01:31:03;;;;;;;;;60.00;45.50;;;;;12.65;39.58;102450.13;5055977;28;45438;-70
2022/03/25 01:33:30;;;;;;;;;54.25;39.00;;;;;12.63;39.46;102451.91;5046383;28;45474;-71
2022/03/25 01:35:56;;;;;;;;;43.00;36.50;;;;;12.62;39.55;102444.91;5041668;28;45286;-70
2022/03/25 01:38:21;;;;;;;;;52.00;40.00;;;;;12.61;39.60;102445.81;5054571;28;46140;-70
2022/03/25 01:40:47;;;;;;;;;52.25;42.25;;;;;12.59;39.49;102447.63;5057357;28;45417;-70
2022/03/25 01:43:12;;;;;;;;;50.50;39.50;;;;;12.58;39.77;102437.09;5052992;28;45957;-70
2022/03/25 01:45:38;;;;;;;;;57.25;41.75;;;;;12.56;39.73;102445.06;5045572;28;45539;-70
2022/03/25 01:48:10;;;;;;;;;58.25;40.00;;;;;12.52;39.64;102436.34;5040800;28;46023;-70
2022/03/25 01:50:36;;;;;;;;;45.75;40.25;;;;;12.48;39.90;102434.69;5042492;28;45627;-70
2022/03/25 01:53:03;;;;;;;;;56.75;40.00;;;;;12.47;39.86;102432.94;5055424;28;45608;-71
2022/03/25 01:55:36;;;;;;;;;53.75;41.25;;;;;12.46;39.62;102436.50;5050919;28;45546;-70
2022/03/25 01:58:02;;;;;;;;;57.00;42.50;;;;;12.42;39.77;102439.22;5045758;28;48005;-70
2022/03/25 02:00:29;;;;;;;;;50.50;39.75;;;;;12.41;39.87;102434.88;5043739;28;45365;-70
2022/03/25 02:02:54;;;;;;;;;60.75;44.00;;;;;12.35;39.92;102433.25;5046624;28;45494;-70
2022/03/25 02:05:19;;;;;;;;;60.00;43.25;;;;;12.35;39.93;102433.25;5055486;28;46699;-70
2022/03/25 02:07:46;;;;;;;;;62.25;44.25;;;;;12.33;40.01;102442.09;5048241;28;46044;-70
2022/03/25 02:10:11;;;;;;;;;52.50;40.75;;;;;12.31;40.32;102433.34;5054717;28;46065;-70
2022/03/25 02:12:37;;;;;;;;;58.75;42.25;;;;;12.30;40.33;102439.53;5057103;28;45242;-70
2022/03/25 02:15:05;;;;;;;;;56.50;44.50;;;;;12.30;40.11;102437.75;5057062;28;45566;-70
2022/03/25 02:17:30;;;;;;;;;56.00;42.75;;;;;12.23;39.64;102428.25;5057157;28;47204;-70
2022/03/25 02:19:55;;;;;;;;;56.75;41.00;;;;;12.19;40.23;102432.72;5056395;28;45574;-70
2022/03/25 02:22:22;;;;;;;;;58.75;44.25;;;;;12.19;40.39;102432.72;5056652;28;45844;-70
2022/03/25 02:24:49;;;;;;;;;63.75;44.25;;;;;12.18;40.67;102433.63;5056672;28;45475;-70
2022/03/25 02:27:16;;;;;;;;;61.25;44.25;;;;;12.16;40.43;102432.81;5056489;28;46313;-70
2022/03/25 02:29:42;;;;;;;;;59.00;44.00;;;;;12.14;40.72;102433.72;5056997;28;45921;-70
2022/03/25 02:32:07;;;;;;;;;60.50;44.25;;;;;12.11;40.55;102424.13;5044981;28;45489;-70
2022/03/25 02:34:33;;;;;;;;;60.50;44.50;;;;;12.11;40.77;102433.78;5045174;28;45525;-70
2022/03/25 02:36:58;;;;;;;;;58.67;43.33;;;;;12.09;40.87;102435.59;5045177;28;47307;-70
2022/03/25 02:39:24;;;;;;;;;53.00;38.50;;;;;12.08;40.48;102433.88;5042788;28;45572;-70
2022/03/25 02:41:49;;;;;;;;;54.75;41.25;;;;;12.05;40.85;102434.78;5056397;28;45408;-70
2022/03/25 02:44:15;;;;;;;;;62.50;45.50;;;;;12.04;41.13;102440.97;5057150;28;45624;-70
2022/03/25 02:46:40;;;;;;;;;53.50;43.00;;;;;11.99;41.30;102438.44;5047887;28;45320;-70
2022/03/25 02:49:05;;;;;;;;;56.50;43.00;;;;;11.98;41.19;102435.84;5044937;28;45766;-70
2022/03/25 02:51:31;;;;;;;;;62.50;45.00;;;;;11.98;41.34;102443.75;5042447;28;45506;-70
2022/03/25 02:53:56;;;;;;;;;57.50;41.50;;;;;11.94;41.35;102442.94;5040469;28;45633;-70
2022/03/25 02:56:24;;;;;;;;;61.75;43.50;;;;;11.93;41.42;102443.84;5052656;28;46308;-70
2022/03/25 02:58:50;;;;;;;;;57.50;41.25;;;;;11.90;41.74;102443.91;5046777;28;45975;-70
2022/03/25 03:01:15;;;;;;;;;57.50;43.25;;;;;11.87;41.87;102441.34;5044631;28;45907;-70
2022/03/25 03:03:41;;;;;;;;;57.00;41.33;;;;;11.85;41.93;102445.78;5044288;28;46896;-70
2022/03/25 03:06:07;;;;;;;;;55.50;41.00;;;;;11.82;42.14;102447.59;5043915;28;46179;-70
2022/03/25 03:08:34;;;;;;;;;60.75;44.50;;;;;11.78;42.10;102441.50;5041471;28;45791;-70
2022/03/25 03:10:59;;;;;;;;;56.25;43.25;;;;;11.76;42.82;102441.53;5044782;28;45618;-70
2022/03/25 03:13:24;;;;;;;;;60.00;44.00;;;;;11.75;42.87;102442.44;5044648;28;48312;-70
2022/03/25 03:15:50;;;;;;;;;65.50;42.25;;;;;11.72;42.73;102441.63;5044219;28;59399;-70
2022/03/25 03:18:16;;;;;;;;;54.25;41.50;;;;;11.70;43.03;102446.06;5055996;28;45542;-70
2022/03/25 03:20:42;;;;;;;;;56.75;40.25;;;;;11.65;43.36;102438.25;5040354;28;45455;-70
2022/03/25 03:23:08;;;;;;;;;58.00;42.25;;;;;11.61;43.53;102438.34;5044209;28;45732;-70
2022/03/25 03:25:34;;;;;;;;;54.00;43.00;;;;;11.55;43.59;102438.47;5044564;28;45424;-70
2022/03/25 03:28:00;;;;;;;;;60.00;45.25;;;;;11.50;43.73;102443.81;5044485;28;45959;-70
2022/03/25 03:30:26;;;;;;;;;56.25;44.00;;;;;11.45;44.23;102443.03;5041699;28;45455;-70
2022/03/25 03:33:04;;;;;;;;;57.75;44.25;;;;;11.40;44.07;102439.63;5046839;28;45542;-70
2022/03/25 03:35:32;;;;;;;;;54.75;40.50;;;;;11.35;44.64;102438.84;5040357;28;47019;-70
2022/03/25 03:37:58;;;;;;;;;56.00;43.75;;;;;11.26;44.60;102418.81;5043115;28;45515;-70
2022/03/25 03:40:23;;;;;;;;;60.75;45.25;;;;;11.28;44.83;102435.47;5044453;28;45437;-70
2022/03/25 03:42:49;;;;;;;;;59.75;43.25;;;;;11.22;44.18;102430.28;5044794;28;45387;-70
2022/03/25 03:45:14;;;;;;;;;63.33;46.00;;;;;11.22;44.56;102435.56;5054864;28;48444;-70
2022/03/25 03:47:42;;;;;;;;;58.25;44.00;;;;;11.19;44.65;102427.75;5056078;28;45403;-70
2022/03/25 03:50:11;;;;;;;;;61.25;45.25;;;;;11.18;44.82;102429.50;5055616;28;45442;-70
2022/03/25 03:52:36;;;;;;;;;59.75;45.25;;;;;11.17;44.33;102433.03;5054281;28;45395;-70
2022/03/25 03:55:04;;;;;;;;;61.50;43.25;;;;;11.16;44.17;102431.28;5054844;28;46112;-70
2022/03/25 03:57:29;;;;;;;;;58.25;42.25;;;;;11.16;44.13;102430.41;5054989;28;45530;-70
2022/03/25 03:59:55;;;;;;;;;60.75;44.25;;;;;11.12;44.50;102429.63;5040700;28;45515;-70
2022/03/25 04:02:21;;;;;;;;;62.25;47.00;;;;;11.13;44.76;102433.13;5042372;28;45394;-70
2022/03/25 04:04:47;;;;;;;;;62.25;46.00;;;;;11.09;44.76;102434.94;5043680;28;46222;-70
2022/03/25 04:07:12;;;;;;;;;60.50;46.25;;;;;11.09;44.76;102439.31;5043614;28;45902;-70
2022/03/25 04:09:38;;;;;;;;;61.00;45.50;;;;;11.05;45.17;102443.75;5044490;28;45550;-70
2022/03/25 04:12:04;;;;;;;;;57.25;43.50;;;;;11.03;44.99;102436.81;5039535;28;45191;-70
2022/03/25 04:14:29;;;;;;;;;49.75;38.00;;;;;10.96;45.42;102431.66;5040309;28;46368;-70
2022/03/25 04:16:54;;;;;;;;;52.33;39.33;;;;;10.95;45.77;102439.56;5043636;28;45274;-70
2022/03/25 04:19:20;;;;;;;;;57.25;42.75;;;;;10.91;45.88;102448.38;5048509;28;45607;-70
2022/03/25 04:21:45;;;;;;;;;59.25;43.75;;;;;10.86;45.98;102437.09;5054295;28;54652;-70
2022/03/25 04:24:10;;;;;;;;;63.67;43.67;;;;;10.82;45.92;102438.91;5054781;28;45312;-70
2022/03/25 04:26:35;;;;;;;;;59.50;42.00;;;;;10.79;45.71;102443.34;5055780;28;48253;-70
2022/03/25 04:29:01;;;;;;;;;59.33;44.33;;;;;10.75;46.17;102441.66;5053655;28;45293;-70
2022/03/25 04:31:26;;;;;;;;;52.25;43.75;;;;;10.71;46.04;102444.34;5053351;28;45466;-70
2022/03/25 04:33:51;;;;;;;;;58.67;42.67;;;;;10.65;46.42;102441.81;5054721;28;45497;-70
2022/03/25 04:36:17;;;;;;;;;59.75;45.75;;;;;10.63;46.55;102443.59;5053946;28;45405;-70
2022/03/25 04:38:42;;;;;;;;;56.75;41.75;;;;;10.60;47.05;102445.41;5055179;28;45507;-70
2022/03/25 04:41:10;;;;;;;;;63.50;44.00;;;;;10.56;47.11;102448.97;5054891;28;45392;-71
2022/03/25 04:43:38;;;;;;;;;62.75;46.75;;;;;10.51;47.16;102445.56;5046923;28;46439;-70
2022/03/25 04:46:04;;;;;;;;;62.50;45.75;;;;;10.49;46.92;102458.69;5046375;28;45443;-70
2022/03/25 04:48:31;;;;;;;;;58.50;44.00;;;;;10.46;47.03;102456.13;5054436;28;45320;-70
2022/03/25 04:50:56;;;;;;;;;56.00;39.75;;;;;10.42;46.99;102452.69;5054635;28;45669;-71
2022/03/25 04:53:22;;;;;;;;;60.00;43.75;;;;;10.34;47.15;102446.69;5041611;28;45558;-70
2022/03/25 04:58:22;;;;;;;;;61.25;43.25;;;;;10.29;47.42;102452.91;4495305;22;46655;-71
2022/03/25 05:00:48;;;;;;;;;59.25;43.75;;;;;10.25;47.60;102459.94;5034141;28;45423;-71
2022/03/25 05:03:13;;;;;;;;;56.00;45.25;;;;;10.20;47.60;102462.59;5034108;28;46884;-70
2022/03/25 05:05:42;;;;;;;;;59.00;44.25;;;;;10.17;48.29;102465.25;5034504;28;45774;-71
2022/03/25 05:08:09;;;;;;;;;59.00;45.25;;;;;10.13;47.96;102463.59;5019526;28;45424;-70
2022/03/25 05:10:34;;;;;;;;;58.50;45.50;;;;;10.10;48.34;102465.38;5033913;28;45310;-70
2022/03/25 05:12:59;;;;;;;;;59.25;44.75;;;;;10.07;48.58;102471.53;5033680;28;46012;-70
2022/03/25 05:15:25;;;;;;;;;60.33;43.33;;;;;10.05;49.24;102475.06;5033134;28;51352;-70
2022/03/25 05:17:51;;;;;;;;;66.00;46.25;;;;;10.02;49.18;102472.47;5034451;28;45336;-70
2022/03/25 05:20:19;;;;;;;;;61.00;43.25;;;;;9.98;49.57;102476.91;5033689;28;45495;-70
2022/03/25 05:22:46;;;;;;;;;58.25;44.50;;;;;9.95;49.49;102476.94;5033480;28;45621;-70
2022/03/25 05:25:11;;;;;;;;;59.50;42.75;;;;;9.94;49.40;102483.09;5033493;28;45495;-70
2022/03/25 05:27:44;;;;;;;;;62.50;45.25;;;;;9.93;49.15;102473.47;5033837;28;45377;-70
2022/03/25 05:30:10;;;;;;;;;64.25;46.00;;;;;9.94;48.68;102481.31;5033749;28;45513;-70
2022/03/25 05:32:36;;;;;;;;;63.25;46.75;;;;;9.95;48.83;102479.56;5033970;28;46138;-70
2022/03/25 05:35:01;;;;;;;;;63.50;46.25;;;;;9.97;48.13;102472.56;5033249;28;45459;-70
2022/03/25 05:37:26;;;;;;;;;63.25;45.25;;;;;9.98;48.09;102479.53;5029746;28;45314;-71
2022/03/25 05:39:52;;;;;;;;;63.67;46.00;;;;;10.00;48.19;102479.50;5032995;28;45412;-70
2022/03/25 05:42:17;;;;;;;;;65.33;43.67;;;;;10.00;47.82;102475.13;5033834;28;46054;-70
2022/03/25 05:44:42;;;;;;;;;56.67;44.33;;;;;10.01;48.13;102479.47;5029875;28;45474;-70
2022/03/25 05:47:08;;;;;;;;;59.67;44.33;;;;;10.03;48.17;102476.84;5028853;28;54967;-70
2022/03/25 05:49:34;;;;;;;;;62.75;46.00;;;;;10.04;47.56;102481.22;5029498;28;45310;-70
2022/03/25 05:51:59;;;;;;;;;61.25;47.25;;;;;10.04;47.92;102473.34;5031903;28;46039;-70
2022/03/25 05:54:24;;;;;;;;;60.00;45.25;;;;;10.08;47.54;102480.31;5033748;28;45465;-70
2022/03/25 05:56:50;;;;;;;;;63.00;45.67;;;;;10.08;48.01;102475.91;5029628;28;45341;-70
2022/03/25 05:59:15;;;;;;;;;58.33;43.33;;;;;10.11;48.14;102475.84;5029057;28;45463;-70
2022/03/25 06:01:40;;;;;;;;;60.75;47.00;;;;;10.13;48.16;102476.72;5028935;28;46042;-70
2022/03/25 06:04:06;;;;;;;;;55.50;41.75;;;;;10.17;47.62;102482.78;5033076;28;45740;-70
2022/03/25 06:06:31;;;;;;;;;60.67;45.33;;;;;10.20;47.56;102488.00;5033903;28;45444;-70
2022/03/25 06:08:56;;;;;;;;;64.00;46.00;;;;;10.24;47.83;102484.50;5029749;28;45622;-70
2022/03/25 06:11:22;;;;;;;;;60.67;46.00;;;;;10.28;47.92;102486.16;5029027;28;46177;-70
2022/03/25 06:13:47;;;;;;;;;61.50;46.50;;;;;10.32;48.27;102490.50;5028851;28;45839;-70
2022/03/25 06:16:13;;;;;;;;;61.00;46.25;;;;;10.35;48.40;102492.22;5029904;28;45412;-70
2022/03/25 06:18:38;;;;;;;;;56.00;45.75;;;;;10.41;48.60;102497.38;5035474;28;45429;-70
2022/03/25 06:21:04;;;;;;;;;60.75;45.75;;;;;10.47;47.86;102499.06;5037282;28;46323;-70
2022/03/25 06:23:29;;;;;;;;;62.25;45.75;;;;;10.52;47.89;102505.13;5032122;28;45478;-70
2022/03/25 06:25:55;;;;;;;;;61.75;48.00;;;;;10.58;47.85;102505.03;5032113;28;45348;-69
2022/03/25 06:28:22;;;;;;;;;63.00;43.50;;;;;10.65;46.92;102515.44;5032089;28;45479;-69
2022/03/25 06:30:48;;;;;;;;;62.50;49.25;;;;;10.73;47.27;102511.81;5035059;28;46342;-70
2022/03/25 06:33:13;;;;;;;;;65.75;45.00;;;;;10.80;47.30;102522.22;5026265;28;45384;-70
2022/03/25 06:35:39;;;;;;;;;60.67;44.00;;;;;10.87;46.66;102513.34;5023386;28;45476;-70
2022/03/25 06:38:06;;;;;;;;;58.00;44.00;;;;;10.91;46.17;102514.16;5021660;28;45502;-70
2022/03/25 06:40:32;;;;;;;;;66.00;46.50;;;;;10.95;46.22;102513.22;5026658;28;46985;-70
2022/03/25 06:42:58;;;;;;;;;60.50;46.50;;;;;11.00;46.35;102518.41;5021980;28;45602;-70
2022/03/25 06:45:24;;;;;;;;;61.25;46.00;;;;;11.06;46.13;102511.28;5032112;28;45348;-70
2022/03/25 06:47:50;;;;;;;;;68.75;47.25;;;;;11.12;46.42;102516.47;5025017;28;45589;-70
2022/03/25 06:50:17;;;;;;;;;59.00;45.50;;;;;11.20;46.10;102511.06;5024406;28;46030;-70
2022/03/25 06:52:43;;;;;;;;;59.25;45.50;;;;;11.29;45.87;102516.16;5027464;28;45447;-70
2022/03/25 06:55:10;;;;;;;;;65.00;47.75;;;;;11.39;46.28;102527.41;5031266;28;45823;-70
2022/03/25 06:57:36;;;;;;;;;59.75;45.50;;;;;11.49;45.76;102535.09;5033564;28;45405;-70
2022/03/25 07:00:03;;;;;;;;;70.00;47.25;;;;;11.62;46.27;102521.72;5033668;28;46298;-70
2022/03/25 07:02:29;;;;;;;;;61.75;46.25;;;;;11.73;45.72;102517.97;5034481;28;46028;-70
2022/03/25 07:04:54;;;;;;;;;65.00;47.00;;;;;11.85;45.57;102523.91;5027737;28;45499;-70
2022/03/25 07:07:26;;;;;;;;;62.50;46.75;;;;;11.97;45.30;102521.06;5034861;28;45454;-70
2022/03/25 07:09:52;;;;;;;;;72.50;50.50;;;;;12.08;45.29;102524.34;5027144;28;46090;-70
2022/03/25 07:12:18;;;;;;;;;63.75;48.50;;;;;12.20;44.96;102523.22;5034327;28;46085;-70
2022/03/25 07:14:43;;;;;;;;;64.50;45.00;;;;;12.38;44.86;102522.81;5032203;28;45526;-70
2022/03/25 07:17:09;;;;;;;;;61.75;44.25;;;;;12.50;44.88;102522.53;5024070;28;45564;-70
2022/03/25 07:19:34;;;;;;;;;62.50;48.75;;;;;12.64;44.44;102526.66;5031311;28;46103;-71
2022/03/25 07:21:59;;;;;;;;;61.50;47.50;;;;;12.79;44.21;102532.44;5031420;28;45373;-70
2022/03/25 07:24:25;;;;;;;;;65.33;50.00;;;;;12.93;43.73;102536.50;5034962;28;45421;-69
2022/03/25 07:26:51;;;;;;;;;57.50;47.00;;;;;13.09;43.93;102531.72;5031939;28;45555;-72
2022/03/25 07:29:16;;;;;;;;;70.00;47.00;;;;;13.26;43.44;102532.22;5034023;28;46139;-72
2022/03/25 07:31:41;;;;;;;;;63.25;48.50;;;;;13.38;42.95;102539.81;5033408;28;45567;-70
2022/03/25 07:34:07;;;;;;;;;62.33;48.33;;;;;13.48;42.91;102532.53;5028208;28;45635;-70
2022/03/25 07:36:32;;;;;;;;;58.33;47.00;;;;;13.60;42.57;102539.25;5034730;28;45538;-70
2022/03/25 07:38:58;;;;;;;;;66.75;47.75;;;;;13.68;42.52;102538.16;5037824;28;47013;-70
2022/03/25 07:41:23;;;;;;;;;63.25;46.50;;;;;13.79;42.11;102536.06;5040388;28;45277;-70
2022/03/25 07:43:49;;;;;;;;;57.00;45.50;;;;;14.00;42.10;102537.25;5036867;28;45745;-70
2022/03/25 07:46:16;;;;;;;;;64.25;49.50;;;;;14.18;42.01;102540.25;5039840;28;45279;-71
2022/03/25 07:48:41;;;;;;;;;63.25;48.75;;;;;14.36;41.50;102545.00;5035671;28;46304;-70
2022/03/25 07:51:08;;;;;;;;;62.00;47.00;;;;;14.53;41.65;102541.88;5039557;28;45453;-70
2022/03/25 07:53:33;;;;;;;;;68.75;46.25;;;;;14.66;41.32;102543.22;5039707;28;45836;-72
2022/03/25 07:55:59;;;;;;;;;64.25;46.75;;;;;14.81;41.21;102547.16;5036931;28;45495;-70
2022/03/25 07:58:24;;;;;;;;;67.75;48.25;;;;;15.03;40.82;102550.00;5036041;28;45424;-70
2022/03/25 08:00:51;;;;;;;;;63.75;47.00;;;;;15.12;40.56;102541.75;5036585;28;45612;-71
2022/03/25 08:03:18;;;;;;;;;66.00;47.75;;;;;15.29;39.95;102549.13;5037696;28;45695;-70
2022/03/25 08:05:44;;;;;;;;;70.00;49.00;;;;;15.46;39.67;102554.72;5051252;28;45550;-71
2022/03/25 08:08:11;;;;;;;;;65.25;47.50;;;;;15.65;39.41;102549.66;5037389;28;46456;-70
2022/03/25 08:10:39;;;;;;;;;63.25;48.00;;;;;15.79;39.10;102554.50;5033358;28;45596;-70
2022/03/25 08:13:05;;;;;;;;;64.75;47.75;;;;;15.88;38.85;102555.03;5031185;28;45455;-70
2022/03/25 08:15:32;;;;;;;;;62.75;46.00;;;;;15.99;38.38;102548.47;5034857;28;45612;-69
2022/03/25 08:18:05;;;;;;;;;65.75;47.50;;;;;16.10;38.94;102555.09;5029042;28;46111;-71
2022/03/25 08:20:40;;;;;;;;;67.00;44.25;;;;;16.25;38.32;102551.03;5034323;28;46008;-71
2022/03/25 08:29:00;;;;;;;;;66.50;47.25;;;;;16.90;36.81;102558.22;5033878;28;45828;-71
2022/03/25 08:31:28;;;;;;;;;66.00;47.00;;;;;17.24;36.65;102556.84;5031882;28;45463;-71
2022/03/25 08:33:53;;;;;;;;;60.00;45.00;;;;;17.75;36.51;102558.22;5032205;28;45812;-71
2022/03/25 08:36:19;;;;;;;;;61.50;46.25;;;;;18.28;36.56;102559.38;5029884;28;45563;-71
2022/03/25 08:38:44;;;;;;;;;59.50;44.00;;;;;18.61;35.67;102555.13;5030005;28;46124;-71
2022/03/25 08:41:10;;;;;;;;;64.50;47.00;;;;;18.87;35.01;102563.69;5027955;28;45451;-71
2022/03/25 08:43:36;;;;;;;;;59.50;46.50;;;;;19.40;34.92;102558.34;5030832;28;46409;-69
2022/03/25 08:46:03;;;;;;;;;80.75;61.50;;;;;20.43;33.67;102559.09;5026904;28;45525;-70
2022/03/25 08:48:28;;;;;;;;;60.50;46.00;;;;;22.04;33.18;102555.88;5030177;28;47026;-69
2022/03/25 08:50:54;;;;;;;;;63.75;48.00;;;;;23.63;32.27;102552.63;5028697;28;45466;-70
2022/03/25 08:53:20;;;;;;;;;67.00;48.25;;;;;25.16;30.10;102553.16;5028225;28;45734;-69
2022/03/25 08:55:46;;;;;;;;;58.50;46.25;;;;;27.42;30.51;102560.09;5026115;28;45440;-69
2022/03/25 08:58:11;;;;;;;;;61.75;44.25;;;;;29.17;28.58;102558.88;5026119;28;46151;-70
2022/03/25 09:00:38;;;;;;;;;59.75;45.25;;;;;30.52;26.81;102553.00;5029594;28;45641;-69
2022/03/25 09:03:05;;;;;;;;;64.00;49.00;;;;;32.08;24.91;102558.72;5035134;28;45430;-70
2022/03/25 09:05:30;;;;;;;;;62.25;46.00;;;;;33.34;24.43;102567.66;5034125;28;45381;-70
2022/03/25 09:07:56;;;;;;;;;60.75;46.25;;;;;34.35;22.93;102561.63;5033711;28;46168;-68
2022/03/25 09:10:21;;;;;;;;;59.75;45.25;;;;;35.47;22.23;102562.88;5033765;28;45400;-70
2022/03/25 09:12:47;;;;;;;;;64.50;47.00;;;;;36.22;21.25;102563.72;5034302;28;45353;-70
2022/03/25 09:15:14;;;;;;;;;62.25;46.25;;;;;36.98;20.49;102565.03;5034540;28;45437;-69
2022/03/25 09:17:41;;;;;;;;;62.00;46.00;;;;;37.82;20.47;102561.47;5030974;28;46335;-70
2022/03/25 09:20:08;;;;;;;;;62.25;47.50;;;;;38.50;20.08;102569.81;5034994;28;45878;-68
2022/03/25 09:22:34;;;;;;;;;57.00;45.75;;;;;39.41;18.73;102562.72;5041745;28;45687;-69
2022/03/25 09:25:01;;;;;;;;;62.25;45.25;;;;;40.07;18.03;102564.50;5030958;28;45471;-69
2022/03/25 09:27:27;;;;;;;;;61.50;47.75;;;;;40.44;17.61;102559.22;5032625;28;46468;-69
2022/03/25 09:29:52;;;;;;;;;61.75;46.25;;;;;40.54;16.68;102559.63;5031561;28;45606;-68
2022/03/25 09:32:18;;;;;;;;;58.50;45.25;;;;;41.09;17.51;102561.78;5029704;28;45604;-68
2022/03/25 09:37:27;;;;;;;;;61.00;46.00;;;;;41.82;16.07;102559.19;5029488;28;45371;-69
2022/03/25 09:39:52;;;;;;;;;59.00;45.50;;;;;42.05;15.99;102561.22;5031018;28;50866;-69
2022/03/25 09:42:19;;;;;;;;;55.75;41.25;;;;;42.44;14.87;102570.88;5031904;28;45425;-69
2022/03/25 09:44:45;;;;;;;;;58.25;46.00;;;;;42.12;15.29;102556.44;5029119;28;45342;-69
2022/03/25 09:47:12;;;;;;;;;60.25;46.75;;;;;42.09;15.31;102556.91;5029104;28;46016;-69
2022/03/25 09:49:38;;;;;;;;;59.75;47.75;;;;;41.82;14.55;102556.41;5033413;28;45519;-69
2022/03/25 09:52:07;;;;;;;;;60.00;46.75;;;;;40.99;15.11;102550.44;5032795;28;45432;-69
2022/03/25 09:54:33;;;;;;;;;62.25;45.75;;;;;40.23;15.06;102549.38;5034874;28;45467;-69
2022/03/25 09:56:58;;;;;;;;;58.25;46.75;;;;;39.50;15.25;102559.75;5027042;28;46434;-69
2022/03/25 09:59:24;;;;;;;;;60.00;45.00;;;;;38.62;16.00;102555.25;5050134;28;45432;-69
2022/03/25 10:01:49;;;;;;;;;58.00;45.00;;;;;37.50;15.82;102563.81;5040463;28;45408;-69
2022/03/25 10:04:40;;;;;;;;;60.50;47.00;;;;;36.55;16.33;102554.06;5037549;28;45493;-69
2022/03/25 10:07:30;;;;;;;;;59.75;47.00;;;;;35.81;17.41;102559.63;5048957;28;48165;-69
2022/03/25 10:10:13;;;;;;;;;58.00;45.00;;;;;35.40;17.31;102555.59;5039550;28;45742;-69
2022/03/25 10:12:42;;;;;;;;;61.25;47.25;;;;;34.92;17.43;102550.31;5030533;28;45421;-68
2022/03/25 10:15:20;;;;;;;;;63.75;48.75;;;;;34.46;17.33;102554.94;5040731;28;45364;-69
2022/03/25 10:17:52;;;;;;;;;62.25;46.50;;;;;34.20;17.36;102561.53;5039626;28;47238;-69
2022/03/25 10:20:24;;;;;;;;;108.75;96.50;;;;;33.95;18.05;102554.47;5036514;28;45338;-69
2022/03/25 10:22:58;;;;;;;;;61.50;48.50;;;;;33.65;17.32;102556.91;5041357;28;45456;-69
2022/03/25 10:25:56;;;;;;;;;60.75;46.25;;;;;33.45;17.67;102552.88;5041251;28;45434;-69
2022/03/25 10:28:44;;;;;;;;;61.00;45.75;;;;;33.28;17.96;102537.53;5040738;28;45630;-69
2022/03/25 10:31:13;;;;;;;;;60.25;45.50;;;;;33.05;17.53;102545.56;5028320;28;45389;-68
2022/03/25 10:33:49;;;;;;;;;58.75;44.25;;;;;33.05;17.42;102545.56;5052607;28;45303;-69
2022/03/25 10:36:17;;;;;;;;;64.50;47.75;;;;;33.11;18.11;102537.56;5041908;28;45357;-69
2022/03/25 10:38:50;;;;;;;;;62.25;47.50;;;;;33.21;17.69;102537.38;5036875;28;46524;-69
2022/03/25 10:41:18;;;;;;;;;63.25;49.00;;;;;33.11;18.42;102543.00;5035450;28;45951;-70
2022/03/25 10:44:03;;;;;;;;;66.00;48.00;;;;;32.46;18.60;102535.56;5040048;28;45441;-71
2022/03/25 10:46:39;;;;;;;;;66.00;48.75;;;;;32.02;19.01;102536.78;5037945;28;45413;-69
2022/03/25 10:49:07;;;;;;;;;64.75;49.25;;;;;31.43;18.88;102540.16;5035997;28;46522;-69
2022/03/25 10:51:34;;;;;;;;;63.50;48.00;;;;;31.01;19.35;102542.69;5036238;28;45313;-69
2022/03/25 10:54:03;;;;;;;;;66.75;49.25;;;;;30.68;19.47;102536.06;5036583;28;45328;-69
2022/03/25 10:56:47;;;;;;;;;68.25;48.75;;;;;30.33;19.99;102532.31;5035905;28;46140;-69
2022/03/25 10:59:25;;;;;;;;;59.50;46.00;;;;;30.02;19.82;102542.56;5035968;28;47276;-69
2022/03/25 11:01:56;;;;;;;;;62.00;48.00;;;;;29.76;19.98;102536.13;5036345;28;45924;-69
2022/03/25 11:04:21;;;;;;;;;65.00;49.50;;;;;29.42;19.94;102543.88;5029521;28;45588;-69
2022/03/25 11:06:48;;;;;;;;;63.75;46.75;;;;;29.18;20.19;102538.91;5036256;28;45431;-70
2022/03/25 11:09:15;;;;;;;;;56.25;43.75;;;;;28.89;20.26;102538.91;5036232;28;46044;-70
2022/03/25 11:11:45;;;;;;;;;59.75;45.50;;;;;28.52;20.60;102532.31;5032204;28;45861;-69
2022/03/25 11:14:12;;;;;;;;;59.75;46.25;;;;;28.17;20.18;102537.31;5031644;28;45322;-69
2022/03/25 11:16:42;;;;;;;;;65.00;50.75;;;;;28.08;20.53;102525.47;5032151;28;45455;-70
2022/03/25 11:19:11;;;;;;;;;61.75;46.00;;;;;28.03;20.64;102534.03;5034952;28;45412;-70